createdAt,value
2019-04-27T15:28:07.496Z,15.90
2019-04-27T15:30:42.419Z,15.40
2019-04-27T15:33:29.000Z,15.40
2019-04-27T15:35:59.918Z,15.60
2019-04-27T15:38:33.450Z,15.40
2019-04-27T15:41:24.360Z,15.30
2019-04-27T15:43:53.522Z,15.50
2019-04-27T15:46:22.693Z,15.60
2019-04-27T15:48:54.182Z,15.40
2019-04-27T15:51:22.736Z,15.30
2019-04-27T15:53:53.932Z,15.20
2019-04-27T15:56:22.872Z,15.40
2019-04-27T15:58:55.682Z,15.60
2019-04-27T16:01:23.114Z,15.50
2019-04-27T16:03:52.452Z,15.40
2019-04-27T16:06:22.054Z,15.10
2019-04-27T16:08:51.359Z,14.90
2019-04-27T16:11:22.046Z,14.70
2019-04-27T16:13:53.301Z,14.60
2019-04-27T16:16:29.135Z,14.50
2019-04-27T16:18:59.414Z,14.50
2019-04-27T16:21:31.533Z,14.60
2019-04-27T16:24:00.061Z,14.80
2019-04-27T16:26:29.263Z,15.00
2019-04-27T16:28:58.428Z,14.90
2019-04-27T16:31:32.807Z,14.90
2019-04-27T16:34:02.854Z,14.90
2019-04-27T16:36:32.287Z,14.80
2019-04-27T16:39:08.466Z,14.80
2019-04-27T16:41:37.357Z,14.80
2019-04-27T16:44:10.702Z,15.00
2019-04-27T16:46:42.616Z,15.00
2019-04-27T16:49:13.855Z,15.20
2019-04-27T16:51:40.429Z,15.30
2019-04-27T16:54:11.182Z,15.30
2019-04-27T16:56:40.710Z,15.10
2019-04-27T16:59:35.486Z,15.00
2019-04-27T17:01:46.269Z,14.80
2019-04-27T17:04:14.994Z,14.60
2019-04-27T17:06:45.993Z,14.40
2019-04-27T17:09:13.465Z,14.30
2019-04-27T17:11:43.852Z,14.20
2019-04-27T17:14:22.597Z,14.20
2019-04-27T17:16:58.174Z,14.30
2019-04-27T17:19:30.725Z,14.30
2019-04-27T17:22:00.242Z,14.30
2019-04-27T17:24:41.631Z,14.20
2019-04-27T17:27:06.001Z,14.30
2019-04-27T17:29:38.542Z,14.40
2019-04-27T17:32:11.097Z,14.20
2019-04-27T17:34:40.269Z,14.10
2019-04-27T17:37:09.442Z,14.10
2019-04-27T17:39:39.753Z,14.10
2019-04-27T17:42:08.987Z,14.10
2019-04-27T17:44:39.375Z,14.10
2019-04-27T17:47:10.620Z,14.10
2019-04-27T17:49:39.665Z,14.10
2019-04-27T17:52:08.972Z,14.00
2019-04-27T17:54:40.879Z,13.80
2019-04-27T17:57:13.376Z,13.40
2019-04-27T17:59:41.070Z,13.00
2019-04-27T18:02:10.731Z,12.60
2019-04-27T18:04:40.997Z,12.40
2019-04-27T18:07:10.530Z,12.40
2019-04-27T18:09:43.326Z,12.40
2019-04-27T18:12:14.847Z,12.40
2019-04-27T18:14:42.520Z,12.30
2019-04-27T18:17:12.245Z,12.30
2019-04-27T18:19:46.194Z,12.30
2019-04-27T18:22:17.880Z,12.20
2019-04-27T18:24:48.927Z,11.90
2019-04-27T18:27:37.695Z,11.60
2019-04-27T18:30:15.633Z,11.20
2019-04-27T18:32:44.946Z,11.00
2019-04-27T18:35:14.182Z,10.80
2019-04-27T18:37:43.387Z,10.70
2019-04-27T18:40:12.622Z,10.70
2019-04-27T18:42:41.834Z,10.70
2019-04-27T18:45:11.139Z,10.60
2019-04-27T18:47:41.966Z,10.40
2019-04-27T18:50:15.718Z,10.10
2019-04-27T18:52:58.176Z,9.80
2019-04-27T18:55:28.946Z,9.60
2019-04-27T18:57:59.636Z,9.50
2019-04-27T19:00:29.544Z,9.40
2019-04-27T19:02:58.895Z,9.40
2019-04-27T19:05:39.692Z,9.40
2019-04-27T19:07:59.174Z,9.30
2019-04-27T19:10:28.409Z,9.30
2019-04-27T19:12:58.522Z,9.30
2019-04-27T19:15:28.579Z,9.20
2019-04-27T19:17:58.247Z,9.00
2019-04-27T19:20:28.784Z,9.00
2019-04-27T19:22:59.829Z,9.00
2019-04-27T19:25:33.574Z,9.10
2019-04-27T19:28:18.589Z,9.10
2019-04-27T19:31:04.266Z,9.10
2019-04-27T19:33:33.495Z,9.10
2019-04-27T19:36:03.711Z,9.20
2019-04-27T19:38:32.885Z,9.00
2019-04-27T19:41:02.073Z,8.80
2019-04-27T19:43:31.315Z,8.60
2019-04-27T19:46:00.464Z,8.60
2019-04-27T19:48:29.660Z,8.70
2019-04-27T19:51:00.176Z,8.70
2019-04-27T19:53:29.614Z,8.70
2019-04-27T19:56:01.565Z,8.60
2019-04-27T19:58:33.337Z,8.60
2019-04-27T20:01:11.866Z,8.50
2019-04-27T20:03:39.355Z,8.50
2019-04-27T20:06:08.575Z,8.50
2019-04-27T20:08:48.970Z,8.50
2019-04-27T20:11:18.283Z,8.40
2019-04-27T20:13:47.455Z,8.40
2019-04-27T20:16:16.595Z,8.40
2019-04-27T20:18:45.745Z,8.40
2019-04-27T20:21:14.979Z,8.40
2019-04-27T20:23:44.232Z,8.50
2019-04-27T20:26:13.440Z,8.50
2019-04-27T20:28:42.739Z,8.50
2019-04-27T20:31:11.884Z,8.50
2019-04-27T20:33:41.634Z,8.50
2019-04-27T20:36:11.270Z,8.50
2019-04-27T20:38:41.815Z,8.50
2019-04-27T20:41:11.613Z,8.40
2019-04-27T20:43:42.079Z,8.40
2019-04-27T20:46:22.785Z,8.40
2019-04-27T20:48:53.120Z,8.30
2019-04-27T20:51:24.457Z,8.40
2019-04-27T20:53:55.321Z,8.30
2019-04-27T20:56:24.460Z,8.30
2019-04-27T20:58:53.615Z,8.30
2019-04-27T21:01:22.766Z,8.20
2019-04-27T21:03:53.649Z,8.20
2019-04-27T21:06:30.424Z,8.10
2019-04-27T21:09:00.864Z,7.90
2019-04-27T21:11:33.719Z,7.70
2019-04-27T21:14:02.930Z,7.60
2019-04-27T21:16:32.103Z,7.50
2019-04-27T21:19:02.613Z,7.50
2019-04-27T21:21:32.196Z,7.40
2019-04-27T21:24:01.335Z,7.40
2019-04-27T21:26:32.233Z,7.40
2019-04-27T21:29:01.591Z,7.40
2019-04-27T21:31:31.657Z,7.40
2019-04-27T21:34:00.971Z,7.50
2019-04-27T21:36:30.991Z,7.50
2019-04-27T21:39:01.466Z,7.50
2019-04-27T21:41:32.410Z,7.50
2019-04-27T21:44:01.554Z,7.50
2019-04-27T21:46:31.639Z,7.50
2019-04-27T21:49:01.636Z,7.50
2019-04-27T21:51:33.822Z,7.50
2019-04-27T21:54:05.822Z,7.50
2019-04-27T21:56:34.986Z,7.40
2019-04-27T21:59:04.127Z,7.40
2019-04-27T22:01:33.747Z,7.50
2019-04-27T22:04:04.897Z,7.60
2019-04-27T22:06:34.235Z,7.70
2019-04-27T22:09:05.487Z,7.80
2019-04-27T22:11:35.117Z,7.80
2019-04-27T22:14:05.972Z,7.70
2019-04-27T22:16:35.143Z,7.80
2019-04-27T22:19:04.275Z,7.80
2019-04-27T22:21:33.432Z,7.80
2019-04-27T22:24:04.291Z,7.80
2019-04-27T22:26:33.446Z,7.80
2019-04-27T22:29:02.680Z,7.80
2019-04-27T22:31:31.910Z,7.80
2019-04-27T22:34:01.854Z,7.70
2019-04-27T22:36:31.205Z,7.70
2019-04-27T22:39:01.987Z,7.60
2019-04-27T22:41:34.386Z,7.60
2019-04-27T22:44:07.884Z,7.60
2019-04-27T22:46:38.674Z,7.60
2019-04-27T22:49:07.891Z,7.50
2019-04-27T22:51:37.107Z,7.40
2019-04-27T22:54:06.263Z,7.40
2019-04-27T22:56:35.569Z,7.40
2019-04-27T22:59:06.389Z,7.30
2019-04-27T23:01:40.665Z,7.40
2019-04-27T23:04:12.786Z,7.30
2019-04-27T23:06:41.962Z,7.40
2019-04-27T23:09:11.792Z,7.40
2019-04-27T23:11:41.550Z,7.30
2019-04-27T23:14:11.147Z,7.30
2019-04-27T23:16:43.168Z,7.30
2019-04-27T23:19:12.364Z,7.10
2019-04-27T23:21:41.516Z,7.10
2019-04-27T23:24:10.672Z,7.10
2019-04-27T23:26:39.814Z,7.20
2019-04-27T23:29:13.708Z,7.10
2019-04-27T23:31:41.526Z,7.10
2019-04-27T23:34:11.748Z,7.00
2019-04-27T23:36:42.350Z,6.90
2019-04-27T23:39:11.953Z,6.80
2019-04-27T23:41:41.231Z,6.70
2019-04-27T23:44:10.414Z,6.70
2019-04-27T23:46:39.904Z,6.80
2019-04-27T23:49:09.143Z,6.90
2019-04-27T23:51:40.008Z,6.90
2019-04-27T23:54:09.270Z,6.90
2019-04-27T23:56:38.480Z,7.00
2019-04-27T23:59:07.692Z,6.90
